createdAt,value
2022-12-19T00:01:58.084Z,20.02
2022-12-19T00:04:26.084Z,18.77
2022-12-19T00:06:54.207Z,20.95
2022-12-19T00:09:22.005Z,18.55
2022-12-19T00:11:49.976Z,16.23
2022-12-19T00:14:17.875Z,18.77
2022-12-19T00:16:46.885Z,18.77
2022-12-19T00:19:15.661Z,20.13
2022-12-19T00:21:43.574Z,18.25
2022-12-19T00:24:20.619Z,16.92
2022-12-19T00:26:50.285Z,18.70
2022-12-19T00:29:18.241Z,17.08
2022-12-19T00:31:46.128Z,18.42
2022-12-19T00:34:16.042Z,17.58
2022-12-19T00:36:44.292Z,18.42
2022-12-19T00:39:12.193Z,16.63
2022-12-19T00:41:41.974Z,13.50
2022-12-19T00:44:12.247Z,18.52
2022-12-19T00:46:42.777Z,15.98
2022-12-19T00:49:15.352Z,13.60
2022-12-19T00:51:43.158Z,14.90
2022-12-19T00:54:11.162Z,12.70
2022-12-19T00:56:39.678Z,13.63
2022-12-19T00:59:07.905Z,18.10
2022-12-19T01:01:39.735Z,12.48
2022-12-19T01:07:02.693Z,13.52
2022-12-19T01:09:34.603Z,11.32
2022-12-19T01:12:24.715Z,11.05
2022-12-19T01:15:03.753Z,14.65
2022-12-19T01:17:40.352Z,11.63
2022-12-19T01:20:14.849Z,11.95
2022-12-19T01:22:42.816Z,10.05
2022-12-19T01:25:10.646Z,12.90
2022-12-19T01:27:40.299Z,12.00
2022-12-19T01:30:08.659Z,10.15
2022-12-19T01:32:38.564Z,11.35
2022-12-19T01:35:06.612Z,10.73
2022-12-19T01:37:37.828Z,12.63
2022-12-19T01:40:06.089Z,10.93
2022-12-19T01:42:37.659Z,12.13
2022-12-19T01:45:13.802Z,8.73
2022-12-19T01:47:53.549Z,9.02
2022-12-19T01:50:32.266Z,11.77
2022-12-19T01:53:01.781Z,9.50
2022-12-19T01:55:31.502Z,10.55
2022-12-19T01:58:00.757Z,9.30
2022-12-19T02:00:28.573Z,12.85
2022-12-19T02:03:18.338Z,10.60
2022-12-19T02:05:46.292Z,11.48
2022-12-19T02:08:14.720Z,8.57
2022-12-19T02:10:42.600Z,9.80
2022-12-19T02:13:10.889Z,10.90
2022-12-19T02:15:47.258Z,9.50
2022-12-19T02:18:21.309Z,8.52
2022-12-19T02:21:30.860Z,11.68
2022-12-19T02:24:05.277Z,7.82
2022-12-19T02:26:56.987Z,10.25
2022-12-19T02:29:47.029Z,8.07
2022-12-19T02:32:20.481Z,10.18
2022-12-19T02:34:54.557Z,9.48
2022-12-19T02:37:29.474Z,8.43
2022-12-19T02:40:07.033Z,7.22
2022-12-19T02:42:40.174Z,9.15
2022-12-19T02:45:09.485Z,9.05
2022-12-19T02:47:38.412Z,7.18
2022-12-19T02:50:07.721Z,6.90
2022-12-19T02:52:36.067Z,7.90
2022-12-19T02:55:11.234Z,8.32
2022-12-19T02:57:56.651Z,9.15
2022-12-19T03:00:27.575Z,9.90
2022-12-19T03:03:01.643Z,8.95
2022-12-19T03:05:30.121Z,7.95
2022-12-19T03:08:28.604Z,8.65
2022-12-19T03:11:06.746Z,9.02
2022-12-19T03:14:00.063Z,8.45
2022-12-19T03:16:28.384Z,7.47
2022-12-19T03:18:57.311Z,7.50
2022-12-19T03:21:25.146Z,10.20
2022-12-19T03:23:54.488Z,11.57
2022-12-19T03:26:25.451Z,8.95
2022-12-19T03:28:59.403Z,10.45
2022-12-19T03:31:28.873Z,9.30
2022-12-19T03:34:09.122Z,9.65
2022-12-19T03:36:44.051Z,7.30
2022-12-19T03:39:14.302Z,11.68
2022-12-19T03:42:03.347Z,8.85
2022-12-19T03:44:33.523Z,9.43
2022-12-19T03:47:23.354Z,11.00
2022-12-19T03:49:51.475Z,9.45
2022-12-19T03:52:19.408Z,10.98
2022-12-19T03:54:51.173Z,11.07
2022-12-19T03:57:19.007Z,10.27
2022-12-19T03:59:49.027Z,9.73
2022-12-19T04:02:19.774Z,9.93
2022-12-19T04:04:49.370Z,8.90
2022-12-19T04:07:18.400Z,8.82
2022-12-19T04:09:46.822Z,8.00
2022-12-19T04:12:18.477Z,8.40
2022-12-19T04:14:46.537Z,10.15
2022-12-19T04:17:29.443Z,10.60
2022-12-19T04:20:00.545Z,12.95
2022-12-19T04:22:37.296Z,10.07
2022-12-19T04:25:10.121Z,9.07
2022-12-19T04:27:39.360Z,9.13
2022-12-19T04:30:07.467Z,10.93
2022-12-19T04:32:36.178Z,9.98
2022-12-19T04:35:03.888Z,13.00
2022-12-19T04:37:32.432Z,9.95
2022-12-19T04:40:00.269Z,9.23
2022-12-19T04:42:28.349Z,9.18
2022-12-19T04:44:56.150Z,10.77
2022-12-19T04:47:23.978Z,9.52
2022-12-19T04:49:51.782Z,14.73
2022-12-19T04:52:19.810Z,9.65
2022-12-19T04:54:47.597Z,7.53
2022-12-19T04:57:15.458Z,10.52
2022-12-19T04:59:43.257Z,9.38
2022-12-19T05:02:11.177Z,8.07
2022-12-19T05:04:39.055Z,6.72
2022-12-19T05:07:06.981Z,7.28
2022-12-19T05:09:37.888Z,8.43
2022-12-19T05:12:06.649Z,6.72
2022-12-19T05:14:34.653Z,9.95
2022-12-19T05:17:02.819Z,6.57
2022-12-19T05:19:30.882Z,8.00
2022-12-19T05:21:58.837Z,9.80
2022-12-19T05:24:26.613Z,10.20
2022-12-19T05:26:54.510Z,7.82
2022-12-19T05:29:22.309Z,12.10
2022-12-19T05:31:50.680Z,11.95
2022-12-19T05:34:18.509Z,10.52
2022-12-19T05:36:46.754Z,9.40
2022-12-19T05:39:14.591Z,8.75
2022-12-19T05:41:46.284Z,7.63
2022-12-19T05:44:16.724Z,10.45
2022-12-19T05:46:45.210Z,10.10
2022-12-19T05:49:13.103Z,8.38
2022-12-19T05:51:41.073Z,10.07
2022-12-19T05:54:08.947Z,9.77
2022-12-19T05:56:36.749Z,6.00
2022-12-19T05:59:04.240Z,7.93
2022-12-19T06:01:32.533Z,10.10
2022-12-19T06:04:00.479Z,7.40
2022-12-19T06:06:28.556Z,7.38
2022-12-19T06:08:57.321Z,12.48
2022-12-19T06:11:25.914Z,9.30
2022-12-19T06:13:54.008Z,9.15
2022-12-19T06:16:22.337Z,9.50
2022-12-19T06:18:50.678Z,9.23
2022-12-19T06:21:20.452Z,9.30
2022-12-19T06:23:48.861Z,10.70
2022-12-19T06:26:20.324Z,7.63
2022-12-19T06:28:53.147Z,8.63
2022-12-19T06:31:22.917Z,7.28
2022-12-19T06:33:51.036Z,8.20
2022-12-19T06:36:18.889Z,9.55
2022-12-19T06:38:47.004Z,11.70
2022-12-19T06:41:34.178Z,8.70
2022-12-19T06:44:02.827Z,11.38
2022-12-19T06:46:31.142Z,7.30
2022-12-19T06:48:59.013Z,13.80
2022-12-19T06:51:27.142Z,9.07
2022-12-19T06:53:55.516Z,14.13
2022-12-19T06:56:23.787Z,10.88
2022-12-19T06:58:51.713Z,9.90
2022-12-19T07:01:20.703Z,7.97
2022-12-19T07:03:49.079Z,7.43
2022-12-19T07:06:17.204Z,10.00
2022-12-19T07:08:45.062Z,14.88
2022-12-19T07:11:12.880Z,8.43
2022-12-19T07:13:40.739Z,9.77
2022-12-19T07:16:09.277Z,5.32
2022-12-19T07:18:38.963Z,9.23
2022-12-19T07:21:07.871Z,7.43
2022-12-19T07:23:36.035Z,9.77
2022-12-19T07:26:04.301Z,10.35
2022-12-19T07:28:34.125Z,7.95
2022-12-19T07:31:02.171Z,8.88
2022-12-19T07:33:30.112Z,12.18
2022-12-19T07:35:58.001Z,9.23
2022-12-19T07:38:25.834Z,6.68
2022-12-19T07:40:53.661Z,7.43
2022-12-19T07:43:21.508Z,8.57
2022-12-19T07:45:54.441Z,9.45
2022-12-19T07:48:22.329Z,8.27
2022-12-19T07:50:50.223Z,8.68
2022-12-19T07:53:17.776Z,9.40
2022-12-19T07:55:45.772Z,7.55
2022-12-19T07:58:13.584Z,7.75
2022-12-19T08:00:41.437Z,10.90
2022-12-19T08:03:09.352Z,7.03
2022-12-19T08:05:37.181Z,8.10
2022-12-19T08:08:05.063Z,7.13
2022-12-19T08:10:32.931Z,7.20
2022-12-19T08:13:00.830Z,8.85
2022-12-19T08:15:28.621Z,7.85
2022-12-19T08:17:56.521Z,9.25
2022-12-19T08:20:24.365Z,8.60
2022-12-19T08:22:52.434Z,9.20
2022-12-19T08:25:20.341Z,7.40
2022-12-19T08:27:48.247Z,5.22
2022-12-19T08:30:16.101Z,5.43
2022-12-19T08:32:45.431Z,6.88
2022-12-19T08:35:13.323Z,7.93
2022-12-19T08:37:41.367Z,7.80
2022-12-19T08:40:10.067Z,8.20
2022-12-19T08:42:38.256Z,6.57
2022-12-19T08:45:06.513Z,5.63
2022-12-19T08:47:34.473Z,6.93
2022-12-19T08:50:02.559Z,7.25
2022-12-19T08:52:31.119Z,5.95
2022-12-19T08:54:59.036Z,6.38
2022-12-19T08:57:26.944Z,4.93
2022-12-19T08:59:54.862Z,6.90
2022-12-19T09:02:24.409Z,9.02
2022-12-19T09:05:59.490Z,7.25
2022-12-19T09:07:41.116Z,5.20
2022-12-19T09:10:09.083Z,6.55
2022-12-19T09:12:36.963Z,5.18
2022-12-19T09:15:05.089Z,3.45
2022-12-19T09:17:32.990Z,7.60
2022-12-19T09:20:00.859Z,4.78
2022-12-19T09:22:29.533Z,5.45
2022-12-19T09:24:57.782Z,6.47
2022-12-19T09:27:25.644Z,4.25
2022-12-19T09:29:53.561Z,8.43
2022-12-19T09:32:21.586Z,4.13
2022-12-19T09:34:49.435Z,7.03
2022-12-19T09:37:17.982Z,5.65
2022-12-19T09:39:46.932Z,4.95
2022-12-19T09:42:14.879Z,4.22
2022-12-19T09:45:08.351Z,5.57
2022-12-19T09:47:38.924Z,6.07
2022-12-19T09:50:13.386Z,5.43
2022-12-19T09:52:50.171Z,5.07
2022-12-19T09:55:23.604Z,3.38
2022-12-19T09:58:36.584Z,7.25
2022-12-19T10:01:15.570Z,3.92
2022-12-19T10:03:49.564Z,5.43
2022-12-19T10:07:14.528Z,4.93
2022-12-19T10:10:32.920Z,4.05
2022-12-19T10:12:45.483Z,7.88
2022-12-19T10:15:01.037Z,5.78
2022-12-19T10:17:49.577Z,7.53
2022-12-19T10:20:25.703Z,9.18
2022-12-19T10:23:21.363Z,7.53
2022-12-19T10:25:55.219Z,8.38
2022-12-19T10:28:32.880Z,9.88
2022-12-19T10:31:18.862Z,7.30
2022-12-19T10:34:28.434Z,9.63
2022-12-19T10:37:26.672Z,7.88
2022-12-19T10:39:56.326Z,15.07
2022-12-19T10:42:43.161Z,12.70
2022-12-19T10:45:20.213Z,10.77
2022-12-19T10:47:49.857Z,14.48
2022-12-19T10:50:21.772Z,16.80
2022-12-19T10:52:55.204Z,11.55
2022-12-19T10:55:38.983Z,14.40
2022-12-19T10:58:12.983Z,9.43
2022-12-19T11:00:47.890Z,8.95
2022-12-19T11:03:18.972Z,8.98
2022-12-19T11:08:15.393Z,10.63
2022-12-19T11:12:45.217Z,10.77
2022-12-19T11:18:49.785Z,11.60
2022-12-19T11:21:16.526Z,6.10
2022-12-19T11:29:17.730Z,6.55
2022-12-19T11:29:37.376Z,6.80
2022-12-19T11:29:42.811Z,8.63
2022-12-19T11:30:38.266Z,4.13
2022-12-19T11:34:15.047Z,5.82
2022-12-19T11:36:49.591Z,7.32
2022-12-19T11:39:36.891Z,4.72
2022-12-19T11:42:26.405Z,8.40
2022-12-19T11:45:12.938Z,5.70
2022-12-19T11:47:43.007Z,7.70
2022-12-19T11:50:10.787Z,6.68
2022-12-19T11:53:16.632Z,5.63
2022-12-19T11:55:57.629Z,5.28
2022-12-19T11:58:28.635Z,6.40
2022-12-19T12:01:02.797Z,4.88
2022-12-19T12:04:02.344Z,6.50
2022-12-19T12:06:35.126Z,5.93
2022-12-19T12:13:07.318Z,5.93
2022-12-19T12:19:46.866Z,11.88
2022-12-19T12:31:01.689Z,7.00
2022-12-19T12:31:04.444Z,4.80
2022-12-19T12:31:08.392Z,6.70
2022-12-19T12:31:40.352Z,5.35
2022-12-19T12:31:57.752Z,9.75
2022-12-19T12:35:11.058Z,3.78
2022-12-19T12:35:29.219Z,9.25
2022-12-19T12:39:21.934Z,4.15
2022-12-19T12:42:05.609Z,6.05
2022-12-19T12:44:45.244Z,5.35
2022-12-19T12:47:24.270Z,6.90
2022-12-19T12:49:54.441Z,4.32
2022-12-19T12:52:31.516Z,5.95
2022-12-19T12:54:59.505Z,6.05
2022-12-19T12:57:27.279Z,5.45
2022-12-19T13:00:26.137Z,5.63
2022-12-19T13:03:00.298Z,7.07
2022-12-19T13:05:40.936Z,4.68
2022-12-19T13:08:27.276Z,7.00
2022-12-19T13:10:56.531Z,4.72
2022-12-19T13:13:50.455Z,6.50
2022-12-19T13:16:37.231Z,5.78
2022-12-19T13:19:19.765Z,7.75
2022-12-19T13:22:05.197Z,4.63
2022-12-19T13:24:46.929Z,8.63
2022-12-19T13:27:21.045Z,8.90
2022-12-19T13:30:01.469Z,8.02
2022-12-19T13:32:41.949Z,7.93
2022-12-19T13:36:47.765Z,5.00
2022-12-19T13:40:00.874Z,9.25
2022-12-19T13:41:26.386Z,8.07
2022-12-19T13:43:58.970Z,7.13
2022-12-19T13:46:39.285Z,10.77
2022-12-19T13:49:09.442Z,9.50
2022-12-19T13:51:57.021Z,8.52
2022-12-19T13:54:32.444Z,8.18
2022-12-19T13:57:05.123Z,7.38
2022-12-19T13:59:39.333Z,5.57
2022-12-19T14:02:16.677Z,13.10
2022-12-19T14:04:45.239Z,9.45
2022-12-19T14:07:24.938Z,6.80
2022-12-19T14:11:32.323Z,13.57
2022-12-19T14:13:43.260Z,10.63
2022-12-19T14:15:53.783Z,7.30
2022-12-19T14:18:44.253Z,11.07
2022-12-19T14:22:11.468Z,10.85
2022-12-19T14:24:10.097Z,7.82
2022-12-19T14:28:19.381Z,10.30
2022-12-19T14:30:19.886Z,11.98
2022-12-19T14:33:44.377Z,12.00
2022-12-19T14:36:08.326Z,12.60
2022-12-19T14:39:22.533Z,12.07
2022-12-19T14:41:08.678Z,9.93
2022-12-19T14:43:58.960Z,11.27
2022-12-19T14:51:51.619Z,9.55
2022-12-19T14:53:52.615Z,12.48
2022-12-19T14:54:28.279Z,5.93
2022-12-19T14:56:11.597Z,15.98
2022-12-19T14:58:54.113Z,13.32
2022-12-19T15:01:09.168Z,8.25
2022-12-19T15:03:44.500Z,13.32
2022-12-19T15:07:09.125Z,14.38
2022-12-19T15:10:58.388Z,9.80
2022-12-19T15:14:49.679Z,10.55
2022-12-19T15:15:51.421Z,11.13
2022-12-19T15:18:29.105Z,11.50
2022-12-19T15:20:59.290Z,12.40
2022-12-19T15:23:27.934Z,12.85
2022-12-19T15:26:06.071Z,9.65
2022-12-19T15:28:38.039Z,8.20
2022-12-19T15:31:24.973Z,7.80
2022-12-19T15:34:32.160Z,10.57
2022-12-19T15:36:40.912Z,9.80
2022-12-19T15:39:08.388Z,8.77
2022-12-19T15:41:36.542Z,8.40
2022-12-19T15:44:11.881Z,10.38
2022-12-19T15:46:46.339Z,8.93
2022-12-19T15:49:17.522Z,8.73
2022-12-19T15:51:45.661Z,7.78
2022-12-19T15:57:01.607Z,9.93
2022-12-19T15:59:37.746Z,7.30
2022-12-19T16:02:16.187Z,8.55
2022-12-19T16:04:44.703Z,6.80
2022-12-19T16:07:16.407Z,8.40
2022-12-19T16:12:14.458Z,12.13
2022-12-19T16:14:42.585Z,7.82
2022-12-19T16:17:17.965Z,7.70
2022-12-19T16:19:45.729Z,7.43
2022-12-19T16:22:25.182Z,8.85
2022-12-19T16:24:54.087Z,7.80
2022-12-19T16:27:23.880Z,6.72
2022-12-19T16:29:52.093Z,8.32
2022-12-19T16:32:20.139Z,9.02
2022-12-19T16:34:48.045Z,7.85
2022-12-19T16:37:16.045Z,5.95
2022-12-19T16:39:43.927Z,3.15
2022-12-19T16:42:16.364Z,5.53
2022-12-19T16:44:46.994Z,5.38
2022-12-19T16:47:17.251Z,8.87
2022-12-19T16:49:45.666Z,8.32
2022-12-19T16:52:13.575Z,6.22
2022-12-19T16:54:41.750Z,5.72
2022-12-19T16:57:21.601Z,8.60
2022-12-19T16:59:50.233Z,8.02
2022-12-19T17:02:31.228Z,9.32
2022-12-19T17:04:59.228Z,6.50
2022-12-19T17:07:28.543Z,7.53
2022-12-19T17:09:56.509Z,10.55
2022-12-19T17:12:26.503Z,10.00
2022-12-19T17:14:54.826Z,11.43
2022-12-19T17:17:22.460Z,9.35
2022-12-19T17:19:50.711Z,5.78
2022-12-19T17:22:20.961Z,9.02
2022-12-19T17:24:49.808Z,5.57
2022-12-19T17:27:19.273Z,8.15
2022-12-19T17:29:47.294Z,4.38
2022-12-19T17:32:23.610Z,3.63
2022-12-19T17:34:52.946Z,7.45
2022-12-19T17:37:20.999Z,8.77
2022-12-19T17:39:48.931Z,7.43
2022-12-19T17:42:21.639Z,10.05
2022-12-19T17:44:49.677Z,4.85
2022-12-19T17:47:19.776Z,2.92
2022-12-19T17:49:48.397Z,8.32
2022-12-19T17:52:19.259Z,4.85
2022-12-19T17:54:47.505Z,6.85
2022-12-19T17:57:17.200Z,6.28
2022-12-19T17:59:46.797Z,3.65
2022-12-19T18:02:23.566Z,4.05
2022-12-19T18:04:51.836Z,4.07
2022-12-19T18:07:19.996Z,6.00
2022-12-19T18:09:47.837Z,5.75
2022-12-19T18:12:15.689Z,3.58
2022-12-19T18:14:43.455Z,4.35
2022-12-19T18:17:12.882Z,2.42
2022-12-19T18:19:40.396Z,5.40
2022-12-19T18:22:14.314Z,3.90
2022-12-19T18:24:42.655Z,4.47
2022-12-19T18:27:10.194Z,4.15
2022-12-19T18:29:37.883Z,2.28
2022-12-19T18:32:05.677Z,3.83
2022-12-19T18:34:34.277Z,5.32
2022-12-19T18:37:04.500Z,3.67
2022-12-19T18:39:33.689Z,4.82
2022-12-19T18:42:01.536Z,7.50
2022-12-19T18:44:29.465Z,7.90
2022-12-19T18:46:57.446Z,4.50
2022-12-19T18:49:25.477Z,6.28
2022-12-19T18:51:53.459Z,4.63
2022-12-19T18:54:22.638Z,4.13
2022-12-19T18:56:50.316Z,7.13
2022-12-19T18:59:18.262Z,3.58
2022-12-19T19:01:47.779Z,5.38
2022-12-19T19:04:18.120Z,6.63
2022-12-19T19:06:51.700Z,6.75
2022-12-19T19:09:21.028Z,8.05
2022-12-19T19:11:48.900Z,10.68
2022-12-19T19:14:16.374Z,8.77
2022-12-19T19:16:44.836Z,8.32
2022-12-19T19:19:15.215Z,7.60
2022-12-19T19:21:43.104Z,12.63
2022-12-19T19:24:12.894Z,4.68
2022-12-19T19:26:41.025Z,9.38
2022-12-19T19:29:08.846Z,8.38
2022-12-19T19:31:40.902Z,3.92
2022-12-19T19:34:17.484Z,9.65
2022-12-19T19:36:47.563Z,8.93
2022-12-19T19:39:15.418Z,7.07
2022-12-19T19:41:43.445Z,16.08
2022-12-19T19:44:11.636Z,10.82
2022-12-19T19:46:39.539Z,8.07
2022-12-19T19:49:07.546Z,8.43
2022-12-19T19:51:35.425Z,5.93
2022-12-19T19:54:03.276Z,8.48
2022-12-19T19:56:31.164Z,9.32
2022-12-19T19:59:00.684Z,11.35
2022-12-19T20:01:28.729Z,6.45
2022-12-19T20:03:56.868Z,6.25
2022-12-19T20:06:24.959Z,8.57
2022-12-19T20:08:52.942Z,9.65
2022-12-19T20:11:21.050Z,6.60
2022-12-19T20:13:49.100Z,7.45
2022-12-19T20:16:18.462Z,7.00
2022-12-19T20:18:51.282Z,7.70
2022-12-19T20:21:20.174Z,6.60
2022-12-19T20:23:48.093Z,5.82
2022-12-19T20:26:16.594Z,7.60
2022-12-19T20:28:49.565Z,6.18
2022-12-19T20:31:19.515Z,7.25
2022-12-19T20:33:48.583Z,6.05
2022-12-19T20:36:16.905Z,5.72
2022-12-19T20:38:45.022Z,6.55
2022-12-19T20:41:12.939Z,7.18
2022-12-19T20:43:41.405Z,8.75
2022-12-19T20:46:19.408Z,8.43
2022-12-19T20:48:48.536Z,7.03
2022-12-19T20:51:17.345Z,5.18
2022-12-19T20:53:45.463Z,6.68
2022-12-19T20:56:17.667Z,5.68
2022-12-19T20:58:46.393Z,9.43
2022-12-19T21:01:16.571Z,7.75
2022-12-19T21:03:45.702Z,9.10
2022-12-19T21:06:17.105Z,6.63
2022-12-19T21:08:44.953Z,5.18
2022-12-19T21:11:13.074Z,6.10
2022-12-19T21:13:41.652Z,4.55
2022-12-19T21:16:10.711Z,4.30
2022-12-19T21:18:39.896Z,6.28
2022-12-19T21:21:09.052Z,5.00
2022-12-19T21:23:37.115Z,6.22
2022-12-19T21:26:05.532Z,7.05
2022-12-19T21:28:33.789Z,5.70
2022-12-19T21:31:23.270Z,3.97
2022-12-19T21:33:51.634Z,5.80
2022-12-19T21:36:21.375Z,4.53
2022-12-19T21:38:51.924Z,5.72
2022-12-19T21:41:20.314Z,10.00
2022-12-19T21:43:55.526Z,6.07
2022-12-19T21:46:28.816Z,9.40
2022-12-19T21:48:57.710Z,11.70
2022-12-19T21:51:27.056Z,12.05
2022-12-19T21:54:00.497Z,7.90
2022-12-19T21:56:29.462Z,5.95
2022-12-19T21:58:59.082Z,5.38
2022-12-19T22:01:27.787Z,6.68
2022-12-19T22:04:03.045Z,7.30
2022-12-19T22:06:32.789Z,4.40
2022-12-19T22:09:01.320Z,5.95
2022-12-19T22:11:29.579Z,7.10
2022-12-19T22:13:59.201Z,5.43
2022-12-19T22:16:27.393Z,5.05
2022-12-19T22:18:56.544Z,7.60
2022-12-19T22:21:25.503Z,6.18
2022-12-19T22:23:56.326Z,5.47
2022-12-19T22:26:25.019Z,7.93
2022-12-19T22:28:54.131Z,8.07
2022-12-19T22:31:24.331Z,8.45
2022-12-19T22:34:12.617Z,5.88
2022-12-19T22:36:41.410Z,7.10
2022-12-19T22:39:11.545Z,3.85
2022-12-19T22:41:40.220Z,4.45
2022-12-19T22:44:08.852Z,5.45
2022-12-19T22:46:37.785Z,3.90
2022-12-19T22:49:07.446Z,4.85
2022-12-19T22:51:37.168Z,6.22
2022-12-19T22:54:05.479Z,5.90
2022-12-19T22:56:33.937Z,5.85
2022-12-19T22:59:03.076Z,4.82
2022-12-19T23:01:32.451Z,2.78
2022-12-19T23:04:02.204Z,3.08
2022-12-19T23:06:34.699Z,2.53
2022-12-19T23:09:03.560Z,3.30
2022-12-19T23:11:35.183Z,3.55
2022-12-19T23:16:33.792Z,6.75
2022-12-19T23:19:01.866Z,5.30
2022-12-19T23:21:30.763Z,7.80
2022-12-19T23:23:58.668Z,6.55
2022-12-19T23:26:34.713Z,8.73
2022-12-19T23:29:10.700Z,4.55
2022-12-19T23:31:45.818Z,5.32
2022-12-19T23:34:13.971Z,6.22
2022-12-19T23:39:29.747Z,4.63
2022-12-19T23:41:57.545Z,4.57
2022-12-19T23:44:25.800Z,12.63
2022-12-19T23:46:59.096Z,6.10
2022-12-19T23:49:30.480Z,3.47
2022-12-19T23:51:58.350Z,5.05
2022-12-19T23:54:25.961Z,8.90
2022-12-19T23:56:53.884Z,6.68
2022-12-19T23:59:21.822Z,5.25
